createdAt,value
2019-02-24T00:00:47.576Z,-4.10
2019-02-24T00:01:46.565Z,-4.17
2019-02-24T00:02:46.556Z,-4.11
2019-02-24T00:03:46.584Z,-4.14
2019-02-24T00:04:46.548Z,-4.12
2019-02-24T00:05:46.518Z,-4.14
2019-02-24T00:06:46.509Z,-4.04
2019-02-24T00:07:46.501Z,-4.11
2019-02-24T00:08:46.484Z,-4.20
2019-02-24T00:09:46.547Z,-4.17
2019-02-24T00:10:46.466Z,-4.11
2019-02-24T00:11:46.451Z,-4.22
2019-02-24T00:12:46.442Z,-4.21
2019-02-24T00:13:46.446Z,-4.22
2019-02-24T00:14:46.431Z,-4.15
2019-02-24T00:15:46.980Z,-4.11
2019-02-24T00:16:46.407Z,-4.21
2019-02-24T00:17:46.414Z,-4.14
2019-02-24T00:18:46.427Z,-4.18
2019-02-24T00:19:47.988Z,-4.11
2019-02-24T00:20:46.374Z,-4.28
2019-02-24T00:21:46.371Z,-4.20
2019-02-24T00:22:46.333Z,-4.17
2019-02-24T00:23:46.329Z,-4.24
2019-02-24T00:24:46.353Z,-4.28
2019-02-24T00:25:46.334Z,-4.28
2019-02-24T00:26:46.289Z,-4.30
2019-02-24T00:27:46.302Z,-4.24
2019-02-24T00:28:46.277Z,-4.22
2019-02-24T00:29:46.265Z,-4.25
2019-02-24T00:30:46.252Z,-4.14
2019-02-24T00:31:46.262Z,-4.28
2019-02-24T00:32:46.222Z,-4.32
2019-02-24T00:33:46.210Z,-4.29
2019-02-24T00:34:46.207Z,-4.29
2019-02-24T00:35:46.227Z,-4.35
2019-02-24T00:36:46.206Z,-4.21
2019-02-24T00:37:46.187Z,-4.28
2019-02-24T00:38:46.161Z,-4.29
2019-02-24T00:39:46.150Z,-4.30
2019-02-24T00:40:46.161Z,-4.25
2019-02-24T00:41:46.136Z,-4.32
2019-02-24T00:42:46.125Z,-4.22
2019-02-24T00:43:46.120Z,-4.29
2019-02-24T00:44:46.101Z,-4.29
2019-02-24T00:45:46.084Z,-4.29
2019-02-24T00:46:47.074Z,-4.28
2019-02-24T00:47:46.091Z,-4.24
2019-02-24T00:48:46.087Z,-4.28
2019-02-24T00:49:46.033Z,-4.46
2019-02-24T00:50:46.032Z,-4.47
2019-02-24T00:51:46.031Z,-4.42
2019-02-24T00:52:46.014Z,-4.47
2019-02-24T00:53:46.020Z,-4.46
2019-02-24T00:54:46.017Z,-4.46
2019-02-24T00:55:45.982Z,-4.49
2019-02-24T00:56:45.962Z,-4.49
2019-02-24T00:57:45.951Z,-4.56
2019-02-24T00:58:45.957Z,-4.43
2019-02-24T00:59:45.991Z,-4.51
2019-02-24T01:00:45.913Z,-4.42
2019-02-24T01:01:45.992Z,-4.46
2019-02-24T01:02:45.898Z,-4.39
2019-02-24T01:03:45.920Z,-4.39
2019-02-24T01:04:45.875Z,-4.39
2019-02-24T01:05:45.863Z,-4.39
2019-02-24T01:06:45.858Z,-4.50
2019-02-24T01:07:45.873Z,-4.53
2019-02-24T01:08:45.827Z,-4.47
2019-02-24T01:09:45.840Z,-4.53
2019-02-24T01:10:45.807Z,-4.56
2019-02-24T01:11:45.795Z,-4.57
2019-02-24T01:12:45.798Z,-4.43
2019-02-24T01:13:45.824Z,-4.47
2019-02-24T01:14:45.811Z,-4.42
2019-02-24T01:15:45.754Z,-4.47
2019-02-24T01:16:45.748Z,-4.42
2019-02-24T01:17:45.733Z,-4.40
2019-02-24T01:18:45.725Z,-4.38
2019-02-24T01:19:45.720Z,-4.42
2019-02-24T01:20:45.723Z,-4.49
2019-02-24T01:21:45.730Z,-4.46
2019-02-24T01:22:45.681Z,-4.40
2019-02-24T01:23:45.676Z,-4.42
2019-02-24T01:24:45.658Z,-4.49
2019-02-24T01:25:45.646Z,-4.50
2019-02-24T01:26:45.654Z,-4.40
2019-02-24T01:27:45.617Z,-4.40
2019-02-24T01:28:45.643Z,-4.50
2019-02-24T01:29:45.606Z,-4.46
2019-02-24T01:30:45.589Z,-4.43
2019-02-24T01:31:45.606Z,-4.42
2019-02-24T01:32:45.568Z,-4.51
2019-02-24T01:33:45.555Z,-4.40
2019-02-24T01:34:45.570Z,-4.46
2019-02-24T01:35:45.537Z,-4.36
2019-02-24T01:36:45.518Z,-4.42
2019-02-24T01:37:46.511Z,-4.53
2019-02-24T01:38:45.503Z,-4.40
2019-02-24T01:39:45.498Z,-4.43
2019-02-24T01:40:45.502Z,-4.43
2019-02-24T01:41:45.475Z,-4.54
2019-02-24T01:42:45.496Z,-4.50
2019-02-24T01:43:45.450Z,-4.47
2019-02-24T01:44:45.439Z,-4.51
2019-02-24T01:45:45.434Z,-4.46
2019-02-24T01:46:45.412Z,-4.46
2019-02-24T01:47:45.446Z,-4.40
2019-02-24T01:48:45.415Z,-4.42
2019-02-24T01:49:45.392Z,-4.47
2019-02-24T01:50:45.377Z,-4.42
2019-02-24T01:51:45.363Z,-4.57
2019-02-24T01:52:45.339Z,-4.49
2019-02-24T01:53:45.386Z,-4.47
2019-02-24T01:54:45.326Z,-4.42
2019-02-24T01:55:45.321Z,-4.49
2019-02-24T01:56:45.310Z,-4.38
2019-02-24T01:57:45.296Z,-4.46
2019-02-24T01:58:45.288Z,-4.50
2019-02-24T01:59:45.287Z,-4.47
2019-02-24T02:00:45.309Z,-4.47
2019-02-24T02:01:45.251Z,-4.38
2019-02-24T02:02:45.243Z,-4.39
2019-02-24T02:03:45.233Z,-4.40
2019-02-24T02:04:45.250Z,-4.40
2019-02-24T02:05:45.212Z,-4.40
2019-02-24T02:06:45.202Z,-4.47
2019-02-24T02:07:45.209Z,-4.42
2019-02-24T02:08:45.183Z,-4.42
2019-02-24T02:09:45.161Z,-4.39
2019-02-24T02:10:45.168Z,-4.46
2019-02-24T02:11:45.138Z,-4.50
2019-02-24T02:12:45.134Z,-4.46
2019-02-24T02:13:45.144Z,-4.38
2019-02-24T02:14:45.126Z,-4.39
2019-02-24T02:15:45.138Z,-4.40
2019-02-24T02:16:45.087Z,-4.43
2019-02-24T02:17:45.075Z,-4.53
2019-02-24T02:18:45.063Z,-4.49
2019-02-24T02:19:45.051Z,-4.57
2019-02-24T02:20:45.074Z,-4.57
2019-02-24T02:21:45.042Z,-4.56
2019-02-24T02:22:45.024Z,-4.49
2019-02-24T02:23:45.015Z,-4.60
2019-02-24T02:24:44.999Z,-4.53
2019-02-24T02:25:45.002Z,-4.63
2019-02-24T02:26:45.004Z,-4.63
2019-02-24T02:27:44.967Z,-4.75
2019-02-24T02:28:44.978Z,-4.74
2019-02-24T02:29:44.957Z,-4.71
2019-02-24T02:30:44.934Z,-4.78
2019-02-24T02:31:44.942Z,-4.74
2019-02-24T02:32:44.918Z,-4.67
2019-02-24T02:33:44.905Z,-4.67
2019-02-24T02:34:44.913Z,-4.67
2019-02-24T02:35:44.887Z,-4.68
2019-02-24T02:36:44.872Z,-4.78
2019-02-24T02:37:44.877Z,-4.68
2019-02-24T02:38:44.846Z,-4.61
2019-02-24T02:39:44.828Z,-4.58
2019-02-24T02:40:44.824Z,-4.46
2019-02-24T02:41:44.841Z,-4.63
2019-02-24T02:42:44.869Z,-4.65
2019-02-24T02:43:44.798Z,-4.67
2019-02-24T02:44:44.792Z,-4.61
2019-02-24T02:45:44.780Z,-4.69
2019-02-24T02:46:44.766Z,-4.68
2019-02-24T02:47:44.749Z,-4.68
2019-02-24T02:48:44.785Z,-4.79
2019-02-24T02:49:44.731Z,-4.74
2019-02-24T02:50:44.719Z,-4.83
2019-02-24T02:51:44.706Z,-4.92
2019-02-24T02:52:44.693Z,-4.89
2019-02-24T02:53:44.690Z,-4.81
2019-02-24T02:54:44.701Z,-4.81
2019-02-24T02:55:44.664Z,-4.61
2019-02-24T02:56:44.644Z,-4.77
2019-02-24T02:57:44.646Z,-4.81
2019-02-24T02:58:53.646Z,-4.81
2019-02-24T02:59:45.614Z,-4.72
2019-02-24T03:00:44.633Z,-4.61
2019-02-24T03:01:44.599Z,-4.72
2019-02-24T03:02:44.604Z,-4.67
2019-02-24T03:03:44.576Z,-4.63
2019-02-24T03:04:45.017Z,-4.65
2019-02-24T03:05:44.558Z,-4.57
2019-02-24T03:06:44.558Z,-4.57
2019-02-24T03:07:44.533Z,-4.67
2019-02-24T03:08:44.526Z,-4.67
2019-02-24T03:09:44.510Z,-4.57
2019-02-24T03:10:44.514Z,-4.65
2019-02-24T03:11:44.497Z,-4.56
2019-02-24T03:12:44.511Z,-4.63
2019-02-24T03:13:44.957Z,-4.61
2019-02-24T03:14:44.456Z,-4.53
2019-02-24T03:15:44.482Z,-4.51
2019-02-24T03:16:44.430Z,-4.63
2019-02-24T03:17:44.415Z,-4.65
2019-02-24T03:18:44.439Z,-4.65
2019-02-24T03:19:44.396Z,-4.74
2019-02-24T03:20:44.386Z,-4.77
2019-02-24T03:21:44.396Z,-4.72
2019-02-24T03:22:44.366Z,-4.81
2019-02-24T03:23:44.351Z,-4.85
2019-02-24T03:24:44.355Z,-4.75
2019-02-24T03:25:44.351Z,-4.78
2019-02-24T03:26:44.336Z,-4.83
2019-02-24T03:27:44.315Z,-4.83
2019-02-24T03:28:44.301Z,-4.83
2019-02-24T03:29:44.292Z,-4.79
2019-02-24T03:30:44.307Z,-4.78
2019-02-24T03:31:44.304Z,-4.78
2019-02-24T03:32:44.467Z,-4.85
2019-02-24T03:33:45.116Z,-4.87
2019-02-24T03:34:44.234Z,-4.75
2019-02-24T03:35:44.225Z,-4.78
2019-02-24T03:36:44.242Z,-4.96
2019-02-24T03:37:44.213Z,-4.95
2019-02-24T03:38:44.197Z,-4.86
2019-02-24T03:39:44.182Z,-4.95
2019-02-24T03:40:44.165Z,-4.89
2019-02-24T03:41:44.161Z,-4.90
2019-02-24T03:42:44.211Z,-4.92
2019-02-24T03:43:44.133Z,-4.99
2019-02-24T03:44:44.126Z,-5.06
2019-02-24T03:45:44.112Z,-4.95
2019-02-24T03:46:44.115Z,-4.93
2019-02-24T03:47:44.093Z,-4.93
2019-02-24T03:48:44.099Z,-4.93
2019-02-24T03:49:44.111Z,-4.92
2019-02-24T03:50:44.059Z,-4.85
2019-02-24T03:51:44.047Z,-4.85
2019-02-24T03:52:44.036Z,-4.89
2019-02-24T03:53:44.050Z,-4.92
2019-02-24T03:54:44.019Z,-4.72
2019-02-24T03:55:44.003Z,-4.74
2019-02-24T03:56:44.018Z,-4.81
2019-02-24T03:57:43.987Z,-4.83
2019-02-24T03:58:43.972Z,-4.81
2019-02-24T03:59:43.971Z,-4.77
2019-02-24T04:00:43.952Z,-4.78
2019-02-24T04:01:43.940Z,-4.72
2019-02-24T04:02:43.960Z,-4.65
2019-02-24T04:03:43.924Z,-4.79
2019-02-24T04:04:43.934Z,-4.77
2019-02-24T04:05:43.899Z,-4.83
2019-02-24T04:06:43.890Z,-4.92
2019-02-24T04:07:43.895Z,-4.79
2019-02-24T04:08:43.866Z,-4.92
2019-02-24T04:09:43.895Z,-4.90
2019-02-24T04:10:43.879Z,-4.83
2019-02-24T04:11:43.831Z,-4.92
2019-02-24T04:12:43.831Z,-4.90
2019-02-24T04:13:43.806Z,-4.83
2019-02-24T04:14:43.804Z,-4.93
2019-02-24T04:15:43.809Z,-4.93
2019-02-24T04:16:43.793Z,-4.90
2019-02-24T04:17:43.768Z,-4.89
2019-02-24T04:18:43.756Z,-4.90
2019-02-24T04:19:43.749Z,-4.96
2019-02-24T04:20:43.739Z,-5.07
2019-02-24T04:21:43.764Z,-4.92
2019-02-24T04:22:43.715Z,-4.96
2019-02-24T04:23:43.706Z,-4.92
2019-02-24T04:24:43.687Z,-4.97
2019-02-24T04:25:44.453Z,-4.96
2019-02-24T04:26:43.692Z,-4.97
2019-02-24T04:27:43.679Z,-5.04
2019-02-24T04:28:43.649Z,-4.97
2019-02-24T04:29:43.634Z,-5.07
2019-02-24T04:30:43.623Z,-5.04
2019-02-24T04:31:43.610Z,-5.06
2019-02-24T04:32:43.655Z,-5.06
2019-02-24T04:33:43.590Z,-5.08
2019-02-24T04:34:43.587Z,-5.08
2019-02-24T04:35:43.571Z,-5.07
2019-02-24T04:36:43.556Z,-5.11
2019-02-24T04:37:43.550Z,-5.07
2019-02-24T04:38:43.578Z,-5.10
2019-02-24T04:39:43.523Z,-5.11
2019-02-24T04:40:43.513Z,-5.07
2019-02-24T04:41:43.506Z,-5.06
2019-02-24T04:42:43.992Z,-5.18
2019-02-24T04:43:43.521Z,-5.08
2019-02-24T04:44:43.492Z,-5.13
2019-02-24T04:45:43.462Z,-5.13
2019-02-24T04:46:43.452Z,-5.23
2019-02-24T04:47:43.450Z,-5.22
2019-02-24T04:48:43.433Z,-5.25
2019-02-24T04:49:43.445Z,-5.19
2019-02-24T04:50:43.445Z,-5.19
2019-02-24T04:51:43.402Z,-5.14
2019-02-24T04:52:43.393Z,-5.22
2019-02-24T04:53:43.375Z,-5.19
2019-02-24T04:54:43.362Z,-5.14
2019-02-24T04:55:43.372Z,-5.22
2019-02-24T04:56:43.366Z,-5.10
2019-02-24T04:57:43.330Z,-5.13
2019-02-24T04:58:43.318Z,-5.23
2019-02-24T04:59:43.308Z,-5.14
2019-02-24T05:00:43.311Z,-5.13
2019-02-24T05:01:43.287Z,-5.19
2019-02-24T05:02:43.301Z,-5.22
2019-02-24T05:03:43.274Z,-5.18
2019-02-24T05:04:43.262Z,-5.26
2019-02-24T05:05:43.263Z,-5.11
2019-02-24T05:06:43.241Z,-5.22
2019-02-24T05:07:43.226Z,-5.22
2019-02-24T05:08:43.233Z,-5.25
2019-02-24T05:09:43.211Z,-5.22
2019-02-24T05:10:43.223Z,-5.22
2019-02-24T05:11:43.185Z,-5.18
2019-02-24T05:12:43.192Z,-5.22
2019-02-24T05:13:43.162Z,-5.23
2019-02-24T05:14:43.149Z,-5.18
2019-02-24T05:15:43.158Z,-5.23
2019-02-24T05:16:43.145Z,-5.23
2019-02-24T05:17:43.120Z,-5.23
2019-02-24T05:18:43.109Z,-5.23
2019-02-24T05:19:43.099Z,-5.22
2019-02-24T05:20:43.132Z,-5.23
2019-02-24T05:21:43.117Z,-5.22
2019-02-24T05:22:43.065Z,-5.22
2019-02-24T05:23:43.200Z,-5.26
2019-02-24T05:24:43.040Z,-5.14
2019-02-24T05:25:43.032Z,-5.26
2019-02-24T05:26:43.050Z,-5.23
2019-02-24T05:27:43.030Z,-5.19
2019-02-24T05:28:42.999Z,-5.25
2019-02-24T05:29:46.074Z,-5.27
2019-02-24T05:30:42.979Z,-5.26
2019-02-24T05:31:42.970Z,-5.19
2019-02-24T05:32:42.981Z,-5.25
2019-02-24T05:33:42.973Z,-5.29
2019-02-24T05:34:42.934Z,-5.25
2019-02-24T05:35:42.923Z,-5.29
2019-02-24T05:36:42.914Z,-5.30
2019-02-24T05:37:42.930Z,-5.23
2019-02-24T05:38:42.889Z,-5.29
2019-02-24T05:39:42.887Z,-5.29
2019-02-24T05:40:42.892Z,-5.32
2019-02-24T05:41:42.861Z,-5.27
2019-02-24T05:42:42.846Z,-5.32
2019-02-24T05:43:42.870Z,-5.29
2019-02-24T05:44:42.824Z,-5.29
2019-02-24T05:45:42.815Z,-5.27
2019-02-24T05:46:42.841Z,-5.37
2019-02-24T05:47:42.804Z,-5.26
2019-02-24T05:48:42.784Z,-5.26
2019-02-24T05:49:42.813Z,-5.29
2019-02-24T05:50:42.785Z,-5.26
2019-02-24T05:51:42.743Z,-5.23
2019-02-24T05:52:42.742Z,-5.19
2019-02-24T05:53:42.754Z,-5.25
2019-02-24T05:54:42.710Z,-5.23
2019-02-24T05:55:42.717Z,-5.25
2019-02-24T05:56:42.698Z,-5.17
2019-02-24T05:57:42.694Z,-5.22
2019-02-24T05:58:42.677Z,-5.22
2019-02-24T05:59:42.665Z,-5.14
2019-02-24T06:00:42.702Z,-5.22
2019-02-24T06:01:42.638Z,-5.23
2019-02-24T06:02:42.627Z,-5.23
2019-02-24T06:03:42.625Z,-5.23
2019-02-24T06:04:42.612Z,-5.23
2019-02-24T06:05:42.594Z,-5.14
2019-02-24T06:06:42.644Z,-5.13
2019-02-24T06:07:42.576Z,-5.22
2019-02-24T06:08:43.602Z,-5.26
2019-02-24T06:09:42.554Z,-5.17
2019-02-24T06:10:42.538Z,-5.17
2019-02-24T06:11:42.533Z,-5.07
2019-02-24T06:12:42.555Z,-5.06
2019-02-24T06:13:42.512Z,-5.04
2019-02-24T06:14:42.527Z,-5.08
2019-02-24T06:15:42.479Z,-5.03
2019-02-24T06:16:42.479Z,-5.07
2019-02-24T06:17:52.599Z,-5.06
2019-02-24T06:18:42.658Z,-4.99
2019-02-24T06:19:42.513Z,-4.97
2019-02-24T06:20:42.532Z,-4.95
2019-02-24T06:21:42.572Z,-4.96
2019-02-24T06:22:42.439Z,-4.96
2019-02-24T06:23:42.438Z,-4.96
2019-02-24T06:24:42.458Z,-4.93
2019-02-24T06:25:42.381Z,-4.89
2019-02-24T06:26:42.374Z,-4.93
2019-02-24T06:28:42.013Z,-4.87
2019-02-24T06:29:42.071Z,-4.86
2019-02-24T06:30:41.898Z,-4.74
2019-02-24T06:31:41.864Z,-4.75
2019-02-24T06:32:41.922Z,-4.71
2019-02-24T06:33:41.875Z,-4.71
2019-02-24T06:34:41.869Z,-4.71
2019-02-24T06:35:41.819Z,-4.60
2019-02-24T06:36:41.826Z,-4.74
2019-02-24T06:37:41.787Z,-4.67
2019-02-24T06:38:41.787Z,-4.63
2019-02-24T06:39:41.814Z,-4.54
2019-02-24T06:40:41.777Z,-4.57
2019-02-24T06:41:41.834Z,-4.54
2019-02-24T06:42:41.770Z,-4.54
2019-02-24T06:43:41.732Z,-4.49
2019-02-24T06:44:41.744Z,-4.40
2019-02-24T06:45:41.743Z,-4.42
2019-02-24T06:46:41.693Z,-4.35
2019-02-24T06:47:51.535Z,-4.24
2019-02-24T06:48:41.725Z,-4.28
2019-02-24T06:49:55.153Z,-4.17
2019-02-24T06:50:53.132Z,-4.11
2019-02-24T06:51:41.822Z,-4.18
2019-02-24T06:52:42.577Z,-4.18
2019-02-24T06:53:41.873Z,-4.10
2019-02-24T06:54:41.679Z,-4.03
2019-02-24T06:55:52.219Z,-4.01
2019-02-24T06:56:43.181Z,-4.01
2019-02-24T06:57:53.418Z,-3.86
2019-02-24T06:58:55.717Z,-3.88
2019-02-24T06:59:41.592Z,-3.81
2019-02-24T07:00:53.167Z,-3.72
2019-02-24T07:01:42.538Z,-3.71
2019-02-24T07:02:56.774Z,-3.71
2019-02-24T07:03:51.291Z,-3.56
2019-02-24T07:05:56.238Z,-3.54
2019-02-24T07:08:08.911Z,-3.42
2019-02-24T07:10:20.795Z,-3.30
2019-02-24T07:12:39.365Z,-3.24
2019-02-24T07:13:47.429Z,-3.15
2019-02-24T07:14:47.120Z,-3.09
2019-02-24T07:15:48.485Z,-3.03
2019-02-24T07:19:12.269Z,-2.99
2019-02-24T07:20:22.510Z,-2.86
2019-02-24T07:21:12.137Z,-2.94
2019-02-24T07:22:15.030Z,-2.79
2019-02-24T07:23:15.014Z,-2.79
2019-02-24T07:24:14.986Z,-2.71
2019-02-24T07:25:23.138Z,-2.81
2019-02-24T07:26:12.064Z,-2.64
2019-02-24T07:27:13.011Z,-2.56
2019-02-24T07:28:13.994Z,-2.55
2019-02-24T07:29:24.183Z,-2.53
2019-02-24T07:30:23.932Z,-2.49
2019-02-24T07:31:28.729Z,-2.55
2019-02-24T07:32:27.524Z,-2.49
2019-02-24T07:33:23.750Z,-2.35
2019-02-24T07:34:21.860Z,-2.34
2019-02-24T07:35:12.018Z,-2.20
2019-02-24T07:36:24.328Z,-2.26
2019-02-24T07:37:13.183Z,-2.23
2019-02-24T07:38:24.422Z,-2.26
2019-02-24T07:39:22.765Z,-2.12
2019-02-24T07:40:24.978Z,-2.21
2019-02-24T07:41:24.472Z,-2.06
2019-02-24T07:42:28.719Z,-2.06
2019-02-24T07:43:23.452Z,-1.94
2019-02-24T07:44:12.841Z,-1.92
2019-02-24T07:45:12.887Z,-1.90
2019-02-24T07:46:12.423Z,-1.92
2019-02-24T07:47:24.123Z,-1.85
2019-02-24T07:48:11.854Z,-1.79
2019-02-24T07:49:28.575Z,-1.87
2019-02-24T07:50:21.824Z,-1.72
2019-02-24T07:51:28.165Z,-1.67
2019-02-24T07:53:27.468Z,-1.64
2019-02-24T07:54:27.279Z,-1.59
2019-02-24T07:55:31.824Z,-1.55
2019-02-24T07:56:29.221Z,-1.45
2019-02-24T07:57:27.217Z,-1.46
2019-02-24T07:58:36.810Z,-1.45
2019-02-24T07:59:27.257Z,-1.31
2019-02-24T08:00:32.354Z,-1.31
2019-02-24T08:03:54.926Z,-1.22
2019-02-24T08:06:04.144Z,-0.99
2019-02-24T08:08:16.902Z,-0.94
2019-02-24T08:10:28.789Z,-0.91
2019-02-24T08:11:39.462Z,-0.85
2019-02-24T08:13:43.997Z,-0.80
2019-02-24T08:15:34.818Z,-0.78
2019-02-24T08:19:01.256Z,-0.65
2019-02-24T08:21:11.466Z,-0.65
2019-02-24T08:22:21.677Z,-0.61
2019-02-24T08:23:25.735Z,-0.58
2019-02-24T08:24:11.395Z,-0.47
2019-02-24T08:25:20.832Z,-0.46
2019-02-24T08:26:25.264Z,-0.37
2019-02-24T08:27:24.788Z,-0.37
2019-02-24T08:28:21.745Z,-0.23
2019-02-24T08:29:19.983Z,-0.28
2019-02-24T08:30:11.365Z,-0.18
2019-02-24T08:31:11.409Z,-0.10
2019-02-24T08:32:13.821Z,-0.14
2019-02-24T08:33:11.383Z,-0.14
2019-02-24T08:34:19.957Z,-0.04
2019-02-24T08:35:11.267Z,-0.03
2019-02-24T08:36:11.282Z,0.00
2019-02-24T08:37:11.850Z,0.08
2019-02-24T08:38:12.957Z,0.08
2019-02-24T08:39:11.170Z,0.21
2019-02-24T08:40:11.166Z,0.24
2019-02-24T08:41:11.111Z,0.29
2019-02-24T08:42:11.114Z,0.23
2019-02-24T08:43:12.099Z,0.31
2019-02-24T08:44:11.136Z,0.32
2019-02-24T08:45:11.105Z,0.35
2019-02-24T08:47:21.424Z,0.51
2019-02-24T08:48:21.404Z,0.58
2019-02-24T08:49:21.367Z,0.62
2019-02-24T08:50:21.459Z,0.60
2019-02-24T08:51:23.304Z,0.73
2019-02-24T08:52:22.262Z,0.75
2019-02-24T08:53:21.285Z,0.80
2019-02-24T08:54:23.061Z,0.79
2019-02-24T08:55:21.235Z,0.83
2019-02-24T08:56:21.548Z,0.90
2019-02-24T08:57:32.803Z,0.86
2019-02-24T08:58:21.383Z,0.94
2019-02-24T08:59:21.281Z,0.93
2019-02-24T09:00:30.681Z,1.04
2019-02-24T09:01:22.188Z,1.08
2019-02-24T09:02:21.255Z,1.05
2019-02-24T09:03:21.292Z,1.08
2019-02-24T09:04:21.170Z,1.04
2019-02-24T09:05:21.116Z,0.97
2019-02-24T09:06:21.112Z,0.94
2019-02-24T09:07:21.163Z,1.02
2019-02-24T09:08:21.090Z,1.08
2019-02-24T09:09:21.094Z,1.05
2019-02-24T09:10:21.056Z,1.02
2019-02-24T09:11:21.060Z,1.14
2019-02-24T09:12:21.113Z,1.16
2019-02-24T09:13:21.087Z,1.27
2019-02-24T09:14:21.610Z,1.24
2019-02-24T09:15:21.023Z,1.23
2019-02-24T09:16:21.015Z,1.34
2019-02-24T09:17:20.985Z,1.37
2019-02-24T09:18:21.115Z,1.37
2019-02-24T09:19:21.594Z,1.54
2019-02-24T09:20:20.981Z,1.55
2019-02-24T09:21:20.933Z,1.55
2019-02-24T09:22:20.972Z,1.66
2019-02-24T09:23:21.591Z,1.72
2019-02-24T09:24:20.901Z,1.76
2019-02-24T09:25:20.911Z,1.77
2019-02-24T09:26:20.891Z,1.86
2019-02-24T09:27:20.900Z,1.95
2019-02-24T09:28:20.883Z,1.95
2019-02-24T09:29:21.887Z,2.00
2019-02-24T09:30:20.868Z,2.06
2019-02-24T09:31:20.912Z,2.18
2019-02-24T09:32:21.632Z,2.17
2019-02-24T09:33:20.816Z,2.24
2019-02-24T09:34:20.874Z,2.25
2019-02-24T09:35:20.785Z,2.36
2019-02-24T09:36:20.802Z,2.35
2019-02-24T09:37:20.859Z,2.46
2019-02-24T09:38:20.753Z,2.53
2019-02-24T09:39:20.758Z,2.63
2019-02-24T09:40:20.773Z,2.60
2019-02-24T09:41:20.724Z,2.61
2019-02-24T09:42:20.701Z,2.59
2019-02-24T09:43:20.718Z,2.69
2019-02-24T09:44:20.726Z,2.78
2019-02-24T09:45:20.789Z,2.75
2019-02-24T09:46:21.581Z,2.78
2019-02-24T09:47:20.660Z,2.79
2019-02-24T09:48:20.654Z,2.89
2019-02-24T09:49:20.630Z,2.82
2019-02-24T09:50:20.642Z,3.02
2019-02-24T09:51:20.609Z,2.95
2019-02-24T09:52:20.612Z,3.11
2019-02-24T09:53:20.573Z,3.31
2019-02-24T09:54:20.595Z,3.43
2019-02-24T09:55:20.548Z,3.50
2019-02-24T09:56:20.606Z,3.60
2019-02-24T09:57:21.542Z,3.60
2019-02-24T09:58:20.529Z,3.61
2019-02-24T09:59:20.538Z,3.68
2019-02-24T10:00:22.066Z,3.72
2019-02-24T10:01:20.498Z,3.73
2019-02-24T10:02:20.517Z,3.78
2019-02-24T10:03:20.467Z,3.91
2019-02-24T10:04:21.093Z,3.90
2019-02-24T10:05:20.448Z,4.02
2019-02-24T10:06:20.445Z,4.11
2019-02-24T10:07:21.462Z,4.27
2019-02-24T10:08:20.405Z,4.34
2019-02-24T10:09:20.388Z,4.44
2019-02-24T10:10:20.414Z,4.45
2019-02-24T10:11:20.439Z,4.50
2019-02-24T10:12:20.370Z,4.65
2019-02-24T10:13:20.407Z,4.63
2019-02-24T10:14:20.351Z,4.73
2019-02-24T10:15:20.322Z,4.84
2019-02-24T10:16:20.357Z,4.89
2019-02-24T10:17:20.349Z,4.91
2019-02-24T10:18:20.305Z,4.94
2019-02-24T10:19:20.301Z,5.06
2019-02-24T10:20:20.288Z,5.06
2019-02-24T10:21:20.271Z,5.07
2019-02-24T10:22:20.257Z,5.09
2019-02-24T10:23:20.230Z,5.15
2019-02-24T10:24:20.278Z,5.22
2019-02-24T10:25:20.226Z,5.15
2019-02-24T10:26:20.229Z,5.38
2019-02-24T10:27:20.205Z,5.28
2019-02-24T10:28:20.205Z,5.35
2019-02-24T10:29:20.172Z,5.30
2019-02-24T10:30:20.189Z,5.49
2019-02-24T10:31:46.167Z,5.40
2019-02-24T10:32:20.146Z,5.49
2019-02-24T10:33:20.166Z,5.60
2019-02-24T10:34:20.136Z,5.54
2019-02-24T10:35:20.120Z,5.67
2019-02-24T10:36:20.097Z,5.76
2019-02-24T10:37:20.101Z,5.74
2019-02-24T10:38:20.074Z,5.94
2019-02-24T10:39:29.352Z,5.94
2019-02-24T10:40:21.082Z,5.90
2019-02-24T10:41:20.048Z,5.91
2019-02-24T10:42:20.036Z,6.03
2019-02-24T10:43:20.046Z,6.03
2019-02-24T10:44:20.007Z,6.03
2019-02-24T10:45:19.999Z,6.08
2019-02-24T10:46:20.016Z,6.08
2019-02-24T10:47:20.021Z,6.18
2019-02-24T10:48:19.960Z,6.28
2019-02-24T10:49:19.947Z,6.37
2019-02-24T10:50:19.958Z,6.41
2019-02-24T10:51:20.048Z,6.44
2019-02-24T10:52:19.923Z,6.51
2019-02-24T10:53:19.911Z,6.46
2019-02-24T10:54:19.889Z,6.66
2019-02-24T10:55:19.875Z,6.64
2019-02-24T10:56:19.855Z,6.64
2019-02-24T10:57:19.879Z,6.64
2019-02-24T10:58:21.222Z,6.67
2019-02-24T10:59:19.825Z,6.70
2019-02-24T11:00:19.818Z,6.76
2019-02-24T11:01:45.638Z,6.76
2019-02-24T11:02:19.855Z,6.77
2019-02-24T11:03:19.779Z,6.70
2019-02-24T11:04:19.763Z,6.81
2019-02-24T11:05:19.774Z,6.85
2019-02-24T11:06:19.787Z,6.74
2019-02-24T11:07:19.733Z,6.70
2019-02-24T11:08:19.786Z,6.70
2019-02-24T11:09:19.751Z,6.79
2019-02-24T11:10:19.707Z,6.73
2019-02-24T11:11:19.688Z,6.69
2019-02-24T11:12:19.683Z,6.67
2019-02-24T11:13:19.711Z,6.76
2019-02-24T11:14:19.667Z,6.73
2019-02-24T11:15:19.646Z,6.74
2019-02-24T11:16:19.638Z,6.79
2019-02-24T11:17:19.639Z,6.85
2019-02-24T11:18:19.612Z,6.84
2019-02-24T11:19:19.626Z,6.85
2019-02-24T11:20:19.611Z,6.87
2019-02-24T11:21:19.578Z,6.88
2019-02-24T11:22:19.569Z,6.91
2019-02-24T11:23:19.555Z,6.97
2019-02-24T11:24:19.587Z,6.99
2019-02-24T11:25:19.537Z,6.94
2019-02-24T11:26:19.556Z,6.98
2019-02-24T11:27:19.505Z,6.97
2019-02-24T11:28:19.497Z,6.95
2019-02-24T11:29:19.489Z,6.98
2019-02-24T11:30:19.491Z,7.09
2019-02-24T11:31:19.450Z,7.15
2019-02-24T11:32:19.487Z,7.15
2019-02-24T11:33:19.444Z,7.34
2019-02-24T11:34:19.425Z,7.37
2019-02-24T11:35:19.444Z,7.49
2019-02-24T11:36:19.404Z,7.57
2019-02-24T11:37:19.392Z,7.52
2019-02-24T11:38:19.389Z,7.75
2019-02-24T11:39:19.372Z,7.97
2019-02-24T11:40:19.361Z,7.98
2019-02-24T11:41:19.368Z,8.07
2019-02-24T11:42:19.331Z,8.19
2019-02-24T11:43:19.335Z,8.33
2019-02-24T11:44:19.310Z,8.38
2019-02-24T11:45:19.305Z,8.50
2019-02-24T11:46:19.309Z,8.53
2019-02-24T11:47:19.281Z,8.61
2019-02-24T11:48:19.267Z,8.73
2019-02-24T11:49:19.244Z,8.81
2019-02-24T11:50:19.241Z,8.95
2019-02-24T11:51:19.239Z,8.92
2019-02-24T11:52:19.244Z,9.10
2019-02-24T11:53:19.209Z,9.15
2019-02-24T11:54:19.195Z,9.21
2019-02-24T11:55:19.190Z,9.36
2019-02-24T11:56:19.722Z,9.36
2019-02-24T11:57:19.178Z,9.39
2019-02-24T11:58:19.161Z,9.38
2019-02-24T11:59:19.139Z,9.51
2019-02-24T12:00:19.130Z,9.48
2019-02-24T12:01:19.121Z,9.47
2019-02-24T12:02:19.122Z,9.60
2019-02-24T12:03:19.085Z,9.60
2019-02-24T12:04:19.087Z,9.57
2019-02-24T12:05:19.069Z,9.61
2019-02-24T12:06:19.057Z,9.60
2019-02-24T12:07:19.057Z,9.68
2019-02-24T12:08:19.049Z,9.75
2019-02-24T12:09:19.041Z,9.86
2019-02-24T12:10:19.014Z,9.86
2019-02-24T12:11:19.013Z,9.94
2019-02-24T12:12:18.992Z,10.01
2019-02-24T12:13:19.008Z,9.99
2019-02-24T12:14:18.978Z,10.04
2019-02-24T12:15:18.957Z,10.05
2019-02-24T12:16:18.971Z,10.07
2019-02-24T12:17:18.928Z,10.17
2019-02-24T12:18:18.929Z,10.15
2019-02-24T12:19:18.928Z,10.05
2019-02-24T12:20:18.900Z,10.09
2019-02-24T12:21:18.885Z,10.01
2019-02-24T12:22:18.885Z,10.04
2019-02-24T12:23:18.869Z,10.14
2019-02-24T12:24:18.886Z,10.08
2019-02-24T12:25:18.844Z,10.02
2019-02-24T12:26:18.837Z,9.97
2019-02-24T12:27:18.824Z,9.99
2019-02-24T12:28:18.800Z,10.07
2019-02-24T12:29:18.801Z,10.14
2019-02-24T12:30:18.800Z,10.11
2019-02-24T12:31:18.784Z,10.18
2019-02-24T12:32:18.764Z,10.14
2019-02-24T12:33:18.757Z,10.02
2019-02-24T12:34:18.738Z,9.96
2019-02-24T12:35:18.747Z,9.90
2019-02-24T12:36:18.741Z,9.90
2019-02-24T12:37:18.701Z,9.75
2019-02-24T12:38:18.706Z,9.71
2019-02-24T12:39:18.692Z,9.66
2019-02-24T12:40:18.673Z,9.61
2019-02-24T12:41:18.685Z,9.65
2019-02-24T12:42:18.644Z,9.57
2019-02-24T12:43:18.634Z,9.61
2019-02-24T12:44:18.619Z,9.64
2019-02-24T12:45:18.640Z,9.57
2019-02-24T12:46:18.652Z,9.58
2019-02-24T12:47:18.592Z,9.58
2019-02-24T12:48:18.607Z,9.58
2019-02-24T12:49:18.587Z,9.57
2019-02-24T12:50:18.568Z,9.56
2019-02-24T12:51:18.550Z,9.56
2019-02-24T12:52:18.607Z,9.53
2019-02-24T12:53:18.540Z,9.56
2019-02-24T12:54:18.548Z,9.60
2019-02-24T12:55:18.511Z,9.61
2019-02-24T12:56:18.550Z,9.64
2019-02-24T12:57:19.111Z,9.60
2019-02-24T12:58:18.480Z,9.69
2019-02-24T12:59:18.495Z,9.76
2019-02-24T13:00:18.473Z,9.84
2019-02-24T13:01:19.036Z,9.89
2019-02-24T13:02:18.442Z,10.02
2019-02-24T13:03:23.930Z,10.05
2019-02-24T13:04:18.407Z,10.08
2019-02-24T13:05:18.430Z,10.07
2019-02-24T13:06:18.426Z,10.04
2019-02-24T13:07:18.401Z,10.01
2019-02-24T13:08:18.413Z,10.05
2019-02-24T13:09:19.669Z,9.99
2019-02-24T13:10:18.357Z,9.86
2019-02-24T13:11:18.376Z,9.99
2019-02-24T13:12:18.324Z,10.05
2019-02-24T13:13:18.359Z,10.01
2019-02-24T13:14:18.294Z,10.09
2019-02-24T13:15:18.290Z,10.01
2019-02-24T13:16:18.283Z,9.97
2019-02-24T13:17:18.256Z,10.09
2019-02-24T13:18:18.241Z,10.09
2019-02-24T13:19:18.271Z,10.12
2019-02-24T13:20:18.217Z,10.14
2019-02-24T13:21:18.216Z,10.08
2019-02-24T13:22:18.192Z,10.11
2019-02-24T13:23:18.182Z,10.17